Azure — ZCEE2 — position and weather

sailwx.info

Track history (hours):
 
Tides and Currents Weather Stations Pressure Air Temp Water Temp Dewpoint Dewpoint Depression Visibility Wind Speed Wind Dir Waves Ship Positions

Azure

Last reported at 2017-Aug-20 04:55 UTC. Time now 2017-Aug-20 11:41 UTC.
Position N 49°23' W 002°17'.

Length 289 m; draft 8.6 m.

Type: Passenger vessel. MMSI: 310610000.

Date/timePositionNaut miles runAvg speedWind from/ knotsBaromVisibWave heightAir tempDewpointWater temp
2017-Aug-20 04:55N 49°23' W 002°17'611.9
2017-Aug-20 04:25N 49°28' W 002°12'512.5
2017-Aug-20 03:59N 49°33' W 002°09'1512.6
2017-Aug-20 02:49N 49°47' W 002°05'311.2
2017-Aug-20 02:30N 49°51' W 002°03'5 9.3
2017-Aug-20 02:00N 49°55' W 002°00'4 9.2
2017-Aug-20 01:31N 49°59' W 001°58'5 9.2
2017-Aug-20 01:00N 50°03' W 001°54'5 9.8
2017-Aug-20 00:31N 50°06' W 001°48'510.0
2017-Aug-20 00:00N 50°08' W 001°41'5 9.3
2017-Aug-19 23:31N 50°11' W 001°35'5 9.3
2017-Aug-19 23:01N 50°15' W 001°31'5 9.2
2017-Aug-19 22:31N 50°18' W 001°26'4 8.9
2017-Aug-19 22:00N 50°21' W 001°21'4 8.7
2017-Aug-19 21:30N 50°24' W 001°16'4 8.6
2017-Aug-19 21:00N 50°27' W 001°11'4 8.1
2017-Aug-19 20:30N 50°30' W 001°07'4 7.8
2017-Aug-19 20:00N 50°33' W 001°03'4 7.8
2017-Aug-19 19:30N 50°37' W 000°60'4 8.4
2017-Aug-19 19:00N 50°41' W 000°58'5 9.3
2017-Aug-19 18:30N 50°44' W 001°04'815.7
2017-Aug-19 18:01N 50°46' W 001°16'510.0
2017-Aug-19 17:30N 50°50' W 001°20'5 9.4
2017-Aug-19 17:00N 50°54' W 001°25'1 1.4
2017-Aug-19 16:28N 50°54' W 001°26'0 0.0
2017-Aug-19 15:58N 50°54' W 001°26'0 0.0
2017-Aug-19 15:28N 50°54' W 001°26'0 0.0
2017-Aug-19 14:58N 50°54' W 001°26'0 0.0
2017-Aug-19 13:58N 50°54' W 001°26'0 0.0
2017-Aug-19 13:28N 50°54' W 001°26'0 0.0
2017-Aug-19 12:58N 50°54' W 001°26'0 0.0
2017-Aug-19 12:28N 50°54' W 001°26'0 0.0
2017-Aug-19 11:58N 50°54' W 001°26'0 0.0
2017-Aug-19 11:28N 50°54' W 001°26'0 0.0
2017-Aug-19 10:55N 50°54' W 001°26'0 0.0
2017-Aug-19 10:25N 50°54' W 001°26'0 0.0
2017-Aug-19 09:58N 50°54' W 001°26'0 0.0
2017-Aug-19 09:28N 50°54' W 001°26'0 0.0
2017-Aug-19 08:58N 50°54' W 001°26'0 0.0
2017-Aug-19 08:28N 50°54' W 001°26'0 0.0
2017-Aug-19 07:58N 50°54' W 001°26'0 0.0
2017-Aug-19 07:28N 50°54' W 001°26'0 0.0
2017-Aug-19 06:55N 50°54' W 001°26'0 0.0
2017-Aug-19 06:28N 50°54' W 001°26'0 0.6
2017-Aug-19 06:00N 50°54' W 001°26'2 4.5
2017-Aug-19 05:30N 50°53' W 001°24'4 8.9
2017-Aug-19 05:00N 50°50' W 001°18'4 7.6
2017-Aug-19 04:30N 50°47' W 001°14'816.2
2017-Aug-19 04:00N 50°44' W 001°03'713.1
2017-Aug-19 03:30N 50°39' W 000°55'4 8.6
2017-Aug-19 03:00N 50°36' W 000°50'1019.4
2017-Aug-19 02:30N 50°35' W 000°35'1020.3
2017-Aug-19 02:00N 50°34' W 000°19'1020.6
2017-Aug-19 01:30N 50°33' W 000°03'1020.5
2017-Aug-19 01:00N 50°35' E 000°13'1020.7
2017-Aug-19 00:30N 50°37' E 000°29'1020.1
2017-Aug-19 00:00N 50°41' E 000°43'1019.8
2017-Aug-18 23:30N 50°47' E 000°56'1019.2
2017-Aug-18 23:00N 50°53' E 001°07'918.5
2017-Aug-18 22:30N 50°59' E 001°18'815.7
2017-Aug-18 22:00N 51°04' E 001°28'815.1
2017-Aug-18 21:30N 51°09' E 001°37'815.6
2017-Aug-18 21:00N 51°15' E 001°46'816.5
2017-Aug-18 20:30N 51°22' E 001°51'917.5
2017-Aug-18 20:00N 51°30' E 001°57'918.1
2017-Aug-18 19:30N 51°39' E 002°02'918.8
2017-Aug-18 19:00N 51°47' E 002°08'2019.4
2017-Aug-18 18:00N 52°06' E 002°18'4621.6 250 / 351010.010.8 16.010.316.0
2017-Aug-18 15:51N 52°52' E 002°31'7820.3
2017-Aug-18 12:00N 54°06' E 003°12'12721.1 260 / 291007.210.8 16.012.416.0
2017-Aug-18 06:00N 56°12' E 003°36'7919.8 180 / 201003.610.8 16.514.816.0
2017-Aug-18 01:59N 57°31' E 003°48'1020.5
2017-Aug-18 01:30N 57°41' E 003°50'1020.6
2017-Aug-18 01:00N 57°51' E 003°51'1120.8
2017-Aug-18 00:30N 58°01' E 003°53'1520.9
2017-Aug-17 23:46N 58°17' E 003°55'520.9
2017-Aug-17 23:30N 58°22' E 003°56'1121.0
2017-Aug-17 23:00N 58°33' E 003°58'1220.2
2017-Aug-17 22:25N 58°44' E 003°59'820.1
2017-Aug-17 22:00N 58°53' E 004°00'10319.7
2017-Aug-17 16:45N 60°35' E 004°22'519.2
2017-Aug-17 16:30N 60°39' E 004°27'917.5
2017-Aug-17 16:00N 60°45' E 004°41'816.2
2017-Aug-17 15:30N 60°39' E 004°52'1019.8
2017-Aug-17 14:59N 60°29' E 004°59'815.2
2017-Aug-17 14:29N 60°24' E 005°09'5 9.7
2017-Aug-17 14:00N 60°24' E 005°19'0 0.1
2017-Aug-17 13:28N 60°24' E 005°19'0 0.0
2017-Aug-17 12:55N 60°24' E 005°19'0 0.0
2017-Aug-17 12:28N 60°24' E 005°19'0 0.0
2017-Aug-17 11:58N 60°24' E 005°19'0 0.0
2017-Aug-17 11:28N 60°24' E 005°19'0 0.0
2017-Aug-17 10:58N 60°24' E 005°19'0 0.0
2017-Aug-17 10:28N 60°24' E 005°19'0 0.0
2017-Aug-17 09:55N 60°24' E 005°19'0 0.0
2017-Aug-17 09:28N 60°24' E 005°19'0 0.0
2017-Aug-17 08:58N 60°24' E 005°19'0 0.0
2017-Aug-17 08:28N 60°24' E 005°19'0 0.0
2017-Aug-17 07:58N 60°24' E 005°19'0 0.0
2017-Aug-17 07:28N 60°24' E 005°19'0 0.0
2017-Aug-17 06:58N 60°24' E 005°19'0 0.0
2017-Aug-17 06:28N 60°24' E 005°19'0 0.0
2017-Aug-17 05:58N 60°24' E 005°19'0 0.0
2017-Aug-17 05:28N 60°24' E 005°19'0 0.1
2017-Aug-17 05:00N 60°24' E 005°19'2 4.2
2017-Aug-17 04:30N 60°24' E 005°15'510.6
2017-Aug-17 04:00N 60°25' E 005°04'613.0
2017-Aug-17 03:30N 60°31' E 004°58'613.0
2017-Aug-17 03:00N 60°37' E 004°53'713.4
2017-Aug-17 02:31N 60°43' E 004°47'612.7
2017-Aug-17 02:00N 60°46' E 004°35'612.6
2017-Aug-17 01:30N 60°49' E 004°25'713.8
2017-Aug-17 00:59N 60°56' E 004°17'4913.6
2017-Aug-16 21:22N 61°45' E 004°23'411.7
2017-Aug-16 21:00N 61°49' E 004°28'611.7
2017-Aug-16 20:30N 61°54' E 004°34'612.4
2017-Aug-16 19:59N 61°58' E 004°44'816.3
2017-Aug-16 19:30N 61°56' E 005°00'612.5
2017-Aug-16 19:00N 61°54' E 005°12'917.3
2017-Aug-16 18:30N 61°55' E 005°31'5 0.3
2017-Aug-16 02:27N 61°54' E 005°41'613.2
2017-Aug-16 02:00N 61°55' E 005°28'612.9
2017-Aug-16 01:30N 61°54' E 005°15'612.6
2017-Aug-16 01:00N 61°56' E 005°02'713.6
2017-Aug-16 00:30N 61°60' E 004°51'5 9.7
2017-Aug-16 00:00N 62°04' E 004°45'510.1
2017-Aug-15 23:29N 62°08' E 004°40'510.8
2017-Aug-15 23:00N 62°13' E 004°35'1 2.4
2017-Aug-15 22:26N 62°13' E 004°32'3 7.7
2017-Aug-15 22:00N 62°16' E 004°36'15 8.7
2017-Aug-15 20:14N 62°28' E 004°56'2 8.7
2017-Aug-15 20:00N 62°29' E 005°00'4 8.7
2017-Aug-15 19:30N 62°30' E 005°09'4 8.5
2017-Aug-15 18:59N 62°30' E 005°19'4 8.8
2017-Aug-15 18:30N 62°31' E 005°28'4 8.6
2017-Aug-15 18:00N 62°31' E 005°37'4 7.8
2017-Aug-15 17:30N 62°30' E 005°45'4 8.4
2017-Aug-15 16:59N 62°27' E 005°53'4 9.1
2017-Aug-15 16:30N 62°27' E 006°03'4 7.1
2017-Aug-15 15:59N 62°28' E 006°10'0 0.6
2017-Aug-15 15:25N 62°28' E 006°09'0 0.0
2017-Aug-15 14:55N 62°28' E 006°09'0 0.0
2017-Aug-15 14:25N 62°28' E 006°09'0 0.0
2017-Aug-15 13:55N 62°28' E 006°09'0 0.0
2017-Aug-15 13:25N 62°28' E 006°09'0 0.0
2017-Aug-15 12:55N 62°28' E 006°09'0 0.0
2017-Aug-15 12:25N 62°28' E 006°09'0 0.0
2017-Aug-15 11:55N 62°28' E 006°09'0 0.0
2017-Aug-15 11:25N 62°28' E 006°09'0 0.0
2017-Aug-15 10:55N 62°28' E 006°09'0 0.0
2017-Aug-15 10:25N 62°28' E 006°09'0 0.0
2017-Aug-15 09:55N 62°28' E 006°09'0 0.0
2017-Aug-15 09:25N 62°28' E 006°09'0 0.0
2017-Aug-15 08:49N 62°28' E 006°09'0 0.0
2017-Aug-15 08:25N 62°28' E 006°09'0 0.0
2017-Aug-15 07:43N 62°28' E 006°09'0 0.0
2017-Aug-15 07:19N 62°28' E 006°09'0 0.0
2017-Aug-15 07:00N 62°28' E 006°09'1 1.8
2017-Aug-15 06:29N 62°27' E 006°11'510.9
2017-Aug-15 06:00N 62°27' E 005°59'816.3
2017-Aug-15 05:30N 62°30' E 005°43'715.2
2017-Aug-15 05:01N 62°28' E 005°28'916.8
2017-Aug-15 04:30N 62°23' E 005°13'817.0
2017-Aug-15 04:01N 62°18' E 004°59'816.8
2017-Aug-15 03:30N 62°10' E 004°49'917.6
2017-Aug-15 03:00N 62°02' E 004°41'917.0
2017-Aug-15 02:30N 61°55' E 004°33'917.3
2017-Aug-15 02:00N 61°47' E 004°26'1917.2
2017-Aug-15 00:55N 61°28' E 004°20'11217.2
2017-Aug-14 18:24N 59°37' E 004°40'718.2
2017-Aug-14 18:00N 59°31' E 004°47'917.7
2017-Aug-14 17:30N 59°23' E 004°54'917.4
2017-Aug-14 17:00N 59°15' E 005°01'816.8
2017-Aug-14 16:30N 59°07' E 005°08'917.0
2017-Aug-14 16:00N 59°07' E 005°25'815.4
2017-Aug-14 15:30N 59°02' E 005°37'510.3
2017-Aug-14 15:01N 58°58' E 005°44'0 0.1
2017-Aug-14 14:29N 58°58' E 005°44'0 0.0
2017-Aug-14 13:59N 58°58' E 005°44'0 0.0
2017-Aug-14 13:29N 58°58' E 005°44'0 0.0
2017-Aug-14 12:59N 58°58' E 005°44'0 0.0
2017-Aug-14 12:29N 58°58' E 005°44'0 0.0
2017-Aug-14 11:59N 58°58' E 005°44'0 0.0
2017-Aug-14 11:29N 58°58' E 005°44'0 0.0
2017-Aug-14 10:59N 58°58' E 005°44'0 0.0
2017-Aug-14 10:29N 58°58' E 005°44'0 0.0
2017-Aug-14 09:59N 58°58' E 005°44'0 0.0
2017-Aug-14 09:29N 58°58' E 005°44'0 0.0
2017-Aug-14 08:59N 58°58' E 005°44'0 0.0
2017-Aug-14 08:29N 58°58' E 005°44'0 0.0
2017-Aug-14 07:59N 58°58' E 005°44'0 0.0
2017-Aug-14 07:29N 58°58' E 005°44'0 0.0
2017-Aug-14 06:59N 58°58' E 005°44'0 0.0
2017-Aug-14 06:29N 58°58' E 005°44'0 0.0
2017-Aug-14 05:59N 58°58' E 005°44'0 0.6
2017-Aug-14 05:31N 58°59' E 005°44'2 4.3
2017-Aug-14 05:00N 59°00' E 005°41'5 9.8
2017-Aug-14 04:30N 59°03' E 005°32'816.2
2017-Aug-14 04:00N 58°54' E 005°32'612.7
2017-Aug-14 03:30N 58°49' E 005°26'917.0
2017-Aug-14 03:00N 58°41' E 005°20'918.0
2017-Aug-14 02:30N 58°32' E 005°15'1019.0
2017-Aug-14 02:00N 58°23' E 005°10'3015.1
2017-Aug-14 00:00N 57°54' E 004°54'25218.0 270 / 161020.510.8 14.0 8.016.0
2017-Aug-13 10:00N 53°48' E 003°18'11921.3 1021.010.8 18.5 9.018.0
2017-Aug-13 04:23N 51°51' E 002°37'1219.5
2017-Aug-13 03:46N 51°41' E 002°27'519.4
2017-Aug-13 03:30N 51°37' E 002°22'1019.4
2017-Aug-13 03:00N 51°29' E 002°12'918.8
2017-Aug-13 02:30N 51°21' E 002°07'917.2
2017-Aug-13 02:00N 51°13' E 002°02'1019.6
2017-Aug-13 01:30N 51°07' E 001°49'1019.6
2017-Aug-13 01:00N 51°01' E 001°37'918.7
2017-Aug-13 00:30N 50°54' E 001°27'918.4
2017-Aug-13 00:00N 50°45' E 001°23'917.2
2017-Aug-12 23:30N 50°39' E 001°13'1019.1
2017-Aug-12 23:00N 50°33' E 001°01'1019.4
2017-Aug-12 22:30N 50°30' E 000°47'1019.2
2017-Aug-12 21:58N 50°27' E 000°31'919.1
2017-Aug-12 21:30N 50°25' E 000°18'1018.7
2017-Aug-12 20:58N 50°22' E 000°03'918.1
2017-Aug-12 20:30N 50°24' W 000°10'918.3
2017-Aug-12 20:00N 50°28' W 000°23'918.0
2017-Aug-12 19:30N 50°32' W 000°36'917.9
2017-Aug-12 19:00N 50°37' W 000°48'816.7
2017-Aug-12 18:30N 50°42' W 000°58'815.6
2017-Aug-12 18:00N 50°46' W 001°09'612.1
2017-Aug-12 17:30N 50°48' W 001°18'5 9.6
2017-Aug-12 17:01N 50°52' W 001°22'3 5.9
2017-Aug-12 16:29N 50°54' W 001°26'0 0.0
2017-Aug-12 15:59N 50°54' W 001°26'0 0.0
2017-Aug-12 15:29N 50°54' W 001°26'0 0.0
2017-Aug-12 14:56N 50°54' W 001°26'0 0.0
2017-Aug-12 14:29N 50°54' W 001°26'0 0.0
2017-Aug-12 13:59N 50°54' W 001°26'0 0.0
2017-Aug-12 13:29N 50°54' W 001°26'0 0.0
2017-Aug-12 12:59N 50°54' W 001°26'0 0.0
2017-Aug-12 12:29N 50°54' W 001°26'0 0.0
2017-Aug-12 11:56N 50°54' W 001°26'0 0.0
2017-Aug-12 11:29N 50°54' W 001°26'0 0.0
2017-Aug-12 10:59N 50°54' W 001°26'0 0.0
2017-Aug-12 10:29N 50°54' W 001°26'0 0.0
2017-Aug-12 09:59N 50°54' W 001°26'0 0.0
2017-Aug-12 09:29N 50°54' W 001°26'0 0.0
2017-Aug-12 08:59N 50°54' W 001°26'0 0.0
2017-Aug-12 08:29N 50°54' W 001°26'0 0.0
2017-Aug-12 07:59N 50°54' W 001°26'0 0.0
2017-Aug-12 07:26N 50°54' W 001°26'0 0.0
2017-Aug-12 06:56N 50°54' W 001°26'0 0.0
2017-Aug-12 06:29N 50°54' W 001°26'0 0.0
2017-Aug-12 05:59N 50°54' W 001°26'0 0.0
2017-Aug-12 05:25N 50°54' W 001°26'0 0.8
2017-Aug-12 05:00N 50°54' W 001°26'2 4.9
2017-Aug-12 04:31N 50°53' W 001°23'4 8.7
2017-Aug-12 04:01N 50°50' W 001°18'4 8.4
2017-Aug-12 03:30N 50°46' W 001°15'815.6
2017-Aug-12 03:01N 50°44' W 001°03'510.4
2017-Aug-12 02:31N 50°39' W 000°59'611.5
2017-Aug-12 02:01N 50°34' W 001°02'713.3
2017-Aug-12 01:31N 50°31' W 001°12'713.7
2017-Aug-12 01:00N 50°28' W 001°21'814.1
2017-Aug-12 00:27N 50°26' W 001°33'614.2
2017-Aug-12 00:01N 50°24' W 001°42'814.8
2017-Aug-11 23:29N 50°22' W 001°54'1715.8
2017-Aug-11 22:25N 50°18' W 002°20'716.4
2017-Aug-11 22:00N 50°17' W 002°30'816.1
2017-Aug-11 21:30N 50°15' W 002°42'816.1
2017-Aug-11 21:00N 50°13' W 002°55'815.8
2017-Aug-11 20:30N 50°09' W 003°04'816.0
2017-Aug-11 20:00N 50°03' W 003°13'816.0
2017-Aug-11 19:30N 49°57' W 003°22'816.2
2017-Aug-11 19:00N 49°52' W 003°31'1020.4
2017-Aug-11 18:30N 49°45' W 003°42'1019.5
2017-Aug-11 18:00N 49°36' W 003°49'3320.3
2017-Aug-11 16:23N 49°12' W 004°25'820.3
2017-Aug-11 16:00N 49°07' W 004°33'1020.2
2017-Aug-11 15:30N 48°59' W 004°43'1020.0
2017-Aug-11 15:00N 48°52' W 004°54'1918.9
2017-Aug-11 14:00N 48°38' W 005°13'1020.6
2017-Aug-11 13:30N 48°31' W 005°24'1920.1
2017-Aug-11 12:33N 48°14' W 005°39'1220.0
2017-Aug-11 11:58N 48°04' W 005°47'47419.8
2017-Aug-10 12:00N 40°42' W 009°48'2717.5 020 / 261024.610.8 17.013.518.0
2017-Aug-10 10:26N 40°15' W 009°48'819.6
2017-Aug-10 10:00N 40°06' W 009°48'1019.6
2017-Aug-10 09:30N 39°57' W 009°48'1019.2
2017-Aug-10 09:00N 39°47' W 009°48'1019.2
2017-Aug-10 08:30N 39°38' W 009°51'1019.5
2017-Aug-10 08:00N 39°28' W 009°52'1019.2
2017-Aug-10 07:30N 39°18' W 009°54'918.9
2017-Aug-10 07:00N 39°09' W 009°54'1019.3
2017-Aug-10 06:30N 38°59' W 009°52'1019.3
2017-Aug-10 06:00N 38°50' W 009°50'8556.8
2017-Aug-10 06:00N 38°42' W 009°48'2 4.1 030 / 241020.810.8 16.512.919.0
2017-Aug-10 05:30N 38°40' W 009°49'1019.3
2017-Aug-10 05:00N 38°31' W 009°45'  
Track history (hours):
 
Tides and Currents Weather Stations Pressure Air Temp Water Temp Dewpoint Dewpoint Depression Visibility Wind Speed Wind Dir Waves Ship Positions

Azure

Last reported at 2017-Aug-20 04:55 UTC. Time now 2017-Aug-20 11:41 UTC.
Position N 49°23' W 002°17'.

Length 289 m; draft 8.6 m.

Type: Passenger vessel. MMSI: 310610000.

Date/timePositionNaut miles runAvg speedWind from/ knotsBaromVisibWave heightAir tempDewpointWater temp
2017-Aug-20 04:55N 49°23' W 002°17'611.9
2017-Aug-20 04:25N 49°28' W 002°12'512.5
2017-Aug-20 03:59N 49°33' W 002°09'1512.6
2017-Aug-20 02:49N 49°47' W 002°05'311.2
2017-Aug-20 02:30N 49°51' W 002°03'5 9.3
2017-Aug-20 02:00N 49°55' W 002°00'4 9.2
2017-Aug-20 01:31N 49°59' W 001°58'5 9.2
2017-Aug-20 01:00N 50°03' W 001°54'5 9.8
2017-Aug-20 00:31N 50°06' W 001°48'510.0
2017-Aug-20 00:00N 50°08' W 001°41'5 9.3
2017-Aug-19 23:31N 50°11' W 001°35'5 9.3
2017-Aug-19 23:01N 50°15' W 001°31'5 9.2
2017-Aug-19 22:31N 50°18' W 001°26'4 8.9
2017-Aug-19 22:00N 50°21' W 001°21'4 8.7
2017-Aug-19 21:30N 50°24' W 001°16'4 8.6
2017-Aug-19 21:00N 50°27' W 001°11'4 8.1
2017-Aug-19 20:30N 50°30' W 001°07'4 7.8
2017-Aug-19 20:00N 50°33' W 001°03'4 7.8
2017-Aug-19 19:30N 50°37' W 000°60'4 8.4
2017-Aug-19 19:00N 50°41' W 000°58'5 9.3
2017-Aug-19 18:30N 50°44' W 001°04'815.7
2017-Aug-19 18:01N 50°46' W 001°16'510.0
2017-Aug-19 17:30N 50°50' W 001°20'5 9.4
2017-Aug-19 17:00N 50°54' W 001°25'1 1.4
2017-Aug-19 16:28N 50°54' W 001°26'0 0.0
2017-Aug-19 15:58N 50°54' W 001°26'0 0.0
2017-Aug-19 15:28N 50°54' W 001°26'0 0.0
2017-Aug-19 14:58N 50°54' W 001°26'0 0.0
2017-Aug-19 13:58N 50°54' W 001°26'0 0.0
2017-Aug-19 13:28N 50°54' W 001°26'0 0.0
2017-Aug-19 12:58N 50°54' W 001°26'0 0.0
2017-Aug-19 12:28N 50°54' W 001°26'0 0.0
2017-Aug-19 11:58N 50°54' W 001°26'0 0.0
2017-Aug-19 11:28N 50°54' W 001°26'0 0.0
2017-Aug-19 10:55N 50°54' W 001°26'0 0.0
2017-Aug-19 10:25N 50°54' W 001°26'0 0.0
2017-Aug-19 09:58N 50°54' W 001°26'0 0.0
2017-Aug-19 09:28N 50°54' W 001°26'0 0.0
2017-Aug-19 08:58N 50°54' W 001°26'0 0.0
2017-Aug-19 08:28N 50°54' W 001°26'0 0.0
2017-Aug-19 07:58N 50°54' W 001°26'0 0.0
2017-Aug-19 07:28N 50°54' W 001°26'0 0.0
2017-Aug-19 06:55N 50°54' W 001°26'0 0.0
2017-Aug-19 06:28N 50°54' W 001°26'0 0.6
2017-Aug-19 06:00N 50°54' W 001°26'2 4.5
2017-Aug-19 05:30N 50°53' W 001°24'4 8.9
2017-Aug-19 05:00N 50°50' W 001°18'4 7.6
2017-Aug-19 04:30N 50°47' W 001°14'816.2
2017-Aug-19 04:00N 50°44' W 001°03'713.1
2017-Aug-19 03:30N 50°39' W 000°55'4 8.6
2017-Aug-19 03:00N 50°36' W 000°50'1019.4
2017-Aug-19 02:30N 50°35' W 000°35'1020.3
2017-Aug-19 02:00N 50°34' W 000°19'1020.6
2017-Aug-19 01:30N 50°33' W 000°03'1020.5
2017-Aug-19 01:00N 50°35' E 000°13'1020.7
2017-Aug-19 00:30N 50°37' E 000°29'1020.1
2017-Aug-19 00:00N 50°41' E 000°43'1019.8
2017-Aug-18 23:30N 50°47' E 000°56'1019.2
2017-Aug-18 23:00N 50°53' E 001°07'918.5
2017-Aug-18 22:30N 50°59' E 001°18'815.7
2017-Aug-18 22:00N 51°04' E 001°28'815.1
2017-Aug-18 21:30N 51°09' E 001°37'815.6
2017-Aug-18 21:00N 51°15' E 001°46'816.5
2017-Aug-18 20:30N 51°22' E 001°51'917.5
2017-Aug-18 20:00N 51°30' E 001°57'918.1
2017-Aug-18 19:30N 51°39' E 002°02'918.8
2017-Aug-18 19:00N 51°47' E 002°08'2019.4
2017-Aug-18 18:00N 52°06' E 002°18'4621.6 250 / 351010.010.8 16.010.316.0
2017-Aug-18 15:51N 52°52' E 002°31'7820.3
2017-Aug-18 12:00N 54°06' E 003°12'12721.1 260 / 291007.210.8 16.012.416.0
2017-Aug-18 06:00N 56°12' E 003°36'7919.8 180 / 201003.610.8 16.514.816.0
2017-Aug-18 01:59N 57°31' E 003°48'1020.5
2017-Aug-18 01:30N 57°41' E 003°50'1020.6
2017-Aug-18 01:00N 57°51' E 003°51'1120.8
2017-Aug-18 00:30N 58°01' E 003°53'1520.9
2017-Aug-17 23:46N 58°17' E 003°55'520.9
2017-Aug-17 23:30N 58°22' E 003°56'1121.0
2017-Aug-17 23:00N 58°33' E 003°58'1220.2
2017-Aug-17 22:25N 58°44' E 003°59'820.1
2017-Aug-17 22:00N 58°53' E 004°00'10319.7
2017-Aug-17 16:45N 60°35' E 004°22'519.2
2017-Aug-17 16:30N 60°39' E 004°27'917.5
2017-Aug-17 16:00N 60°45' E 004°41'816.2
2017-Aug-17 15:30N 60°39' E 004°52'1019.8
2017-Aug-17 14:59N 60°29' E 004°59'815.2
2017-Aug-17 14:29N 60°24' E 005°09'5 9.7
2017-Aug-17 14:00N 60°24' E 005°19'0 0.1
2017-Aug-17 13:28N 60°24' E 005°19'0 0.0
2017-Aug-17 12:55N 60°24' E 005°19'0 0.0
2017-Aug-17 12:28N 60°24' E 005°19'0 0.0
2017-Aug-17 11:58N 60°24' E 005°19'0 0.0
2017-Aug-17 11:28N 60°24' E 005°19'0 0.0
2017-Aug-17 10:58N 60°24' E 005°19'0 0.0
2017-Aug-17 10:28N 60°24' E 005°19'0 0.0
2017-Aug-17 09:55N 60°24' E 005°19'0 0.0
2017-Aug-17 09:28N 60°24' E 005°19'0 0.0
2017-Aug-17 08:58N 60°24' E 005°19'0 0.0
2017-Aug-17 08:28N 60°24' E 005°19'0 0.0
2017-Aug-17 07:58N 60°24' E 005°19'0 0.0
2017-Aug-17 07:28N 60°24' E 005°19'0 0.0
2017-Aug-17 06:58N 60°24' E 005°19'0 0.0
2017-Aug-17 06:28N 60°24' E 005°19'0 0.0
2017-Aug-17 05:58N 60°24' E 005°19'0 0.0
2017-Aug-17 05:28N 60°24' E 005°19'0 0.1
2017-Aug-17 05:00N 60°24' E 005°19'2 4.2
2017-Aug-17 04:30N 60°24' E 005°15'510.6
2017-Aug-17 04:00N 60°25' E 005°04'613.0
2017-Aug-17 03:30N 60°31' E 004°58'613.0
2017-Aug-17 03:00N 60°37' E 004°53'713.4
2017-Aug-17 02:31N 60°43' E 004°47'612.7
2017-Aug-17 02:00N 60°46' E 004°35'612.6
2017-Aug-17 01:30N 60°49' E 004°25'713.8
2017-Aug-17 00:59N 60°56' E 004°17'4913.6
2017-Aug-16 21:22N 61°45' E 004°23'411.7
2017-Aug-16 21:00N 61°49' E 004°28'611.7
2017-Aug-16 20:30N 61°54' E 004°34'612.4
2017-Aug-16 19:59N 61°58' E 004°44'816.3
2017-Aug-16 19:30N 61°56' E 005°00'612.5
2017-Aug-16 19:00N 61°54' E 005°12'917.3
2017-Aug-16 18:30N 61°55' E 005°31'5 0.3
2017-Aug-16 02:27N 61°54' E 005°41'613.2
2017-Aug-16 02:00N 61°55' E 005°28'612.9
2017-Aug-16 01:30N 61°54' E 005°15'612.6
2017-Aug-16 01:00N 61°56' E 005°02'713.6
2017-Aug-16 00:30N 61°60' E 004°51'5 9.7
2017-Aug-16 00:00N 62°04' E 004°45'510.1
2017-Aug-15 23:29N 62°08' E 004°40'510.8
2017-Aug-15 23:00N 62°13' E 004°35'1 2.4
2017-Aug-15 22:26N 62°13' E 004°32'3 7.7
2017-Aug-15 22:00N 62°16' E 004°36'15 8.7
2017-Aug-15 20:14N 62°28' E 004°56'2 8.7
2017-Aug-15 20:00N 62°29' E 005°00'4 8.7
2017-Aug-15 19:30N 62°30' E 005°09'4 8.5
2017-Aug-15 18:59N 62°30' E 005°19'4 8.8
2017-Aug-15 18:30N 62°31' E 005°28'4 8.6
2017-Aug-15 18:00N 62°31' E 005°37'4 7.8
2017-Aug-15 17:30N 62°30' E 005°45'4 8.4
2017-Aug-15 16:59N 62°27' E 005°53'4 9.1
2017-Aug-15 16:30N 62°27' E 006°03'4 7.1
2017-Aug-15 15:59N 62°28' E 006°10'0 0.6
2017-Aug-15 15:25N 62°28' E 006°09'0 0.0
2017-Aug-15 14:55N 62°28' E 006°09'0 0.0
2017-Aug-15 14:25N 62°28' E 006°09'0 0.0
2017-Aug-15 13:55N 62°28' E 006°09'0 0.0
2017-Aug-15 13:25N 62°28' E 006°09'0 0.0
2017-Aug-15 12:55N 62°28' E 006°09'0 0.0
2017-Aug-15 12:25N 62°28' E 006°09'0 0.0
2017-Aug-15 11:55N 62°28' E 006°09'0 0.0
2017-Aug-15 11:25N 62°28' E 006°09'0 0.0
2017-Aug-15 10:55N 62°28' E 006°09'0 0.0
2017-Aug-15 10:25N 62°28' E 006°09'0 0.0
2017-Aug-15 09:55N 62°28' E 006°09'0 0.0
2017-Aug-15 09:25N 62°28' E 006°09'0 0.0
2017-Aug-15 08:49N 62°28' E 006°09'0 0.0
2017-Aug-15 08:25N 62°28' E 006°09'0 0.0
2017-Aug-15 07:43N 62°28' E 006°09'0 0.0
2017-Aug-15 07:19N 62°28' E 006°09'0 0.0
2017-Aug-15 07:00N 62°28' E 006°09'1 1.8
2017-Aug-15 06:29N 62°27' E 006°11'510.9
2017-Aug-15 06:00N 62°27' E 005°59'816.3
2017-Aug-15 05:30N 62°30' E 005°43'715.2
2017-Aug-15 05:01N 62°28' E 005°28'916.8
2017-Aug-15 04:30N 62°23' E 005°13'817.0
2017-Aug-15 04:01N 62°18' E 004°59'816.8
2017-Aug-15 03:30N 62°10' E 004°49'917.6
2017-Aug-15 03:00N 62°02' E 004°41'917.0
2017-Aug-15 02:30N 61°55' E 004°33'917.3
2017-Aug-15 02:00N 61°47' E 004°26'1917.2
2017-Aug-15 00:55N 61°28' E 004°20'11217.2
2017-Aug-14 18:24N 59°37' E 004°40'718.2
2017-Aug-14 18:00N 59°31' E 004°47'917.7
2017-Aug-14 17:30N 59°23' E 004°54'917.4
2017-Aug-14 17:00N 59°15' E 005°01'816.8
2017-Aug-14 16:30N 59°07' E 005°08'917.0
2017-Aug-14 16:00N 59°07' E 005°25'815.4
2017-Aug-14 15:30N 59°02' E 005°37'510.3
2017-Aug-14 15:01N 58°58' E 005°44'0 0.1
2017-Aug-14 14:29N 58°58' E 005°44'0 0.0
2017-Aug-14 13:59N 58°58' E 005°44'0 0.0
2017-Aug-14 13:29N 58°58' E 005°44'0 0.0
2017-Aug-14 12:59N 58°58' E 005°44'0 0.0
2017-Aug-14 12:29N 58°58' E 005°44'0 0.0
2017-Aug-14 11:59N 58°58' E 005°44'0 0.0
2017-Aug-14 11:29N 58°58' E 005°44'0 0.0
2017-Aug-14 10:59N 58°58' E 005°44'0 0.0
2017-Aug-14 10:29N 58°58' E 005°44'0 0.0
2017-Aug-14 09:59N 58°58' E 005°44'0 0.0
2017-Aug-14 09:29N 58°58' E 005°44'0 0.0
2017-Aug-14 08:59N 58°58' E 005°44'0 0.0
2017-Aug-14 08:29N 58°58' E 005°44'0 0.0
2017-Aug-14 07:59N 58°58' E 005°44'0 0.0
2017-Aug-14 07:29N 58°58' E 005°44'0 0.0
2017-Aug-14 06:59N 58°58' E 005°44'0 0.0
2017-Aug-14 06:29N 58°58' E 005°44'0 0.0
2017-Aug-14 05:59N 58°58' E 005°44'0 0.6
2017-Aug-14 05:31N 58°59' E 005°44'2 4.3
2017-Aug-14 05:00N 59°00' E 005°41'5 9.8
2017-Aug-14 04:30N 59°03' E 005°32'816.2
2017-Aug-14 04:00N 58°54' E 005°32'612.7
2017-Aug-14 03:30N 58°49' E 005°26'917.0
2017-Aug-14 03:00N 58°41' E 005°20'918.0
2017-Aug-14 02:30N 58°32' E 005°15'1019.0
2017-Aug-14 02:00N 58°23' E 005°10'3015.1
2017-Aug-14 00:00N 57°54' E 004°54'25218.0 270 / 161020.510.8 14.0 8.016.0
2017-Aug-13 10:00N 53°48' E 003°18'11921.3 1021.010.8 18.5 9.018.0
2017-Aug-13 04:23N 51°51' E 002°37'1219.5
2017-Aug-13 03:46N 51°41' E 002°27'519.4
2017-Aug-13 03:30N 51°37' E 002°22'1019.4
2017-Aug-13 03:00N 51°29' E 002°12'918.8
2017-Aug-13 02:30N 51°21' E 002°07'917.2
2017-Aug-13 02:00N 51°13' E 002°02'1019.6
2017-Aug-13 01:30N 51°07' E 001°49'1019.6
2017-Aug-13 01:00N 51°01' E 001°37'918.7
2017-Aug-13 00:30N 50°54' E 001°27'918.4
2017-Aug-13 00:00N 50°45' E 001°23'917.2
2017-Aug-12 23:30N 50°39' E 001°13'1019.1
2017-Aug-12 23:00N 50°33' E 001°01'1019.4
2017-Aug-12 22:30N 50°30' E 000°47'1019.2
2017-Aug-12 21:58N 50°27' E 000°31'919.1
2017-Aug-12 21:30N 50°25' E 000°18'1018.7
2017-Aug-12 20:58N 50°22' E 000°03'918.1
2017-Aug-12 20:30N 50°24' W 000°10'918.3
2017-Aug-12 20:00N 50°28' W 000°23'918.0
2017-Aug-12 19:30N 50°32' W 000°36'917.9
2017-Aug-12 19:00N 50°37' W 000°48'816.7
2017-Aug-12 18:30N 50°42' W 000°58'815.6
2017-Aug-12 18:00N 50°46' W 001°09'612.1
2017-Aug-12 17:30N 50°48' W 001°18'5 9.6
2017-Aug-12 17:01N 50°52' W 001°22'3 5.9
2017-Aug-12 16:29N 50°54' W 001°26'0 0.0
2017-Aug-12 15:59N 50°54' W 001°26'0 0.0
2017-Aug-12 15:29N 50°54' W 001°26'0 0.0
2017-Aug-12 14:56N 50°54' W 001°26'0 0.0
2017-Aug-12 14:29N 50°54' W 001°26'0 0.0
2017-Aug-12 13:59N 50°54' W 001°26'0 0.0
2017-Aug-12 13:29N 50°54' W 001°26'0 0.0
2017-Aug-12 12:59N 50°54' W 001°26'0 0.0
2017-Aug-12 12:29N 50°54' W 001°26'0 0.0
2017-Aug-12 11:56N 50°54' W 001°26'0 0.0
2017-Aug-12 11:29N 50°54' W 001°26'0 0.0
2017-Aug-12 10:59N 50°54' W 001°26'0 0.0
2017-Aug-12 10:29N 50°54' W 001°26'0 0.0
2017-Aug-12 09:59N 50°54' W 001°26'0 0.0
2017-Aug-12 09:29N 50°54' W 001°26'0 0.0
2017-Aug-12 08:59N 50°54' W 001°26'0 0.0
2017-Aug-12 08:29N 50°54' W 001°26'0 0.0
2017-Aug-12 07:59N 50°54' W 001°26'0 0.0
2017-Aug-12 07:26N 50°54' W 001°26'0 0.0
2017-Aug-12 06:56N 50°54' W 001°26'0 0.0
2017-Aug-12 06:29N 50°54' W 001°26'0 0.0
2017-Aug-12 05:59N 50°54' W 001°26'0 0.0
2017-Aug-12 05:25N 50°54' W 001°26'0 0.8
2017-Aug-12 05:00N 50°54' W 001°26'2 4.9
2017-Aug-12 04:31N 50°53' W 001°23'4 8.7
2017-Aug-12 04:01N 50°50' W 001°18'4 8.4
2017-Aug-12 03:30N 50°46' W 001°15'815.6
2017-Aug-12 03:01N 50°44' W 001°03'510.4
2017-Aug-12 02:31N 50°39' W 000°59'611.5
2017-Aug-12 02:01N 50°34' W 001°02'713.3
2017-Aug-12 01:31N 50°31' W 001°12'713.7
2017-Aug-12 01:00N 50°28' W 001°21'814.1
2017-Aug-12 00:27N 50°26' W 001°33'614.2
2017-Aug-12 00:01N 50°24' W 001°42'814.8
2017-Aug-11 23:29N 50°22' W 001°54'1715.8
2017-Aug-11 22:25N 50°18' W 002°20'716.4
2017-Aug-11 22:00N 50°17' W 002°30'816.1
2017-Aug-11 21:30N 50°15' W 002°42'816.1
2017-Aug-11 21:00N 50°13' W 002°55'815.8
2017-Aug-11 20:30N 50°09' W 003°04'816.0
2017-Aug-11 20:00N 50°03' W 003°13'816.0
2017-Aug-11 19:30N 49°57' W 003°22'816.2
2017-Aug-11 19:00N 49°52' W 003°31'1020.4
2017-Aug-11 18:30N 49°45' W 003°42'1019.5
2017-Aug-11 18:00N 49°36' W 003°49'3320.3
2017-Aug-11 16:23N 49°12' W 004°25'820.3
2017-Aug-11 16:00N 49°07' W 004°33'1020.2
2017-Aug-11 15:30N 48°59' W 004°43'1020.0
2017-Aug-11 15:00N 48°52' W 004°54'1918.9
2017-Aug-11 14:00N 48°38' W 005°13'1020.6
2017-Aug-11 13:30N 48°31' W 005°24'1920.1
2017-Aug-11 12:33N 48°14' W 005°39'1220.0
2017-Aug-11 11:58N 48°04' W 005°47'47419.8
2017-Aug-10 12:00N 40°42' W 009°48'2717.5 020 / 261024.610.8 17.013.518.0
2017-Aug-10 10:26N 40°15' W 009°48'819.6
2017-Aug-10 10:00N 40°06' W 009°48'1019.6
2017-Aug-10 09:30N 39°57' W 009°48'1019.2
2017-Aug-10 09:00N 39°47' W 009°48'1019.2
2017-Aug-10 08:30N 39°38' W 009°51'1019.5
2017-Aug-10 08:00N 39°28' W 009°52'1019.2
2017-Aug-10 07:30N 39°18' W 009°54'918.9
2017-Aug-10 07:00N 39°09' W 009°54'1019.3
2017-Aug-10 06:30N 38°59' W 009°52'1019.3
2017-Aug-10 06:00N 38°50' W 009°50'8556.8
2017-Aug-10 06:00N 38°42' W 009°48'2 4.1 030 / 241020.810.8 16.512.919.0
2017-Aug-10 05:30N 38°40' W 009°49'1019.3
2017-Aug-10 05:00N 38°31' W 009°45'  

Dump ship's entire track history